sensor_id;sensor_type;location;lat;lon;timestamp;P1;durP1;ratioP1;P2;durP2;ratioP2
28357;SDS011;15605;48.114;11.522;2024-01-30T00:02:19;14.13;;;7.95;;
28357;SDS011;15605;48.114;11.522;2024-01-30T00:05:02;16.02;;;8.35;;
28357;SDS011;15605;48.114;11.522;2024-01-30T00:07:56;14.10;;;8.57;;
28357;SDS011;15605;48.114;11.522;2024-01-30T00:11:23;14.13;;;8.02;;
28357;SDS011;15605;48.114;11.522;2024-01-30T00:14:04;16.05;;;7.45;;
28357;SDS011;15605;48.114;11.522;2024-01-30T00:17:03;14.55;;;8.77;;
28357;SDS011;15605;48.114;11.522;2024-01-30T00:19:54;16.98;;;8.73;;
28357;SDS011;15605;48.114;11.522;2024-01-30T00:22:29;11.93;;;7.60;;
28357;SDS011;15605;48.114;11.522;2024-01-30T00:25:17;12.27;;;7.97;;
28357;SDS011;15605;48.114;11.522;2024-01-30T00:28:00;12.23;;;7.88;;
28357;SDS011;15605;48.114;11.522;2024-01-30T00:30:53;13.50;;;7.57;;
28357;SDS011;15605;48.114;11.522;2024-01-30T00:33:35;13.80;;;7.50;;
28357;SDS011;15605;48.114;11.522;2024-01-30T00:36:16;12.10;;;7.28;;
28357;SDS011;15605;48.114;11.522;2024-01-30T00:39:03;15.45;;;8.13;;
28357;SDS011;15605;48.114;11.522;2024-01-30T00:41:43;16.45;;;7.35;;
28357;SDS011;15605;48.114;11.522;2024-01-30T00:44:31;10.93;;;7.07;;
28357;SDS011;15605;48.114;11.522;2024-01-30T00:47:37;11.77;;;6.93;;
28357;SDS011;15605;48.114;11.522;2024-01-30T00:50:36;11.05;;;7.25;;
28357;SDS011;15605;48.114;11.522;2024-01-30T00:53:23;11.60;;;7.10;;
28357;SDS011;15605;48.114;11.522;2024-01-30T00:56:11;10.88;;;6.60;;
28357;SDS011;15605;48.114;11.522;2024-01-30T00:58:53;10.35;;;6.68;;
28357;SDS011;15605;48.114;11.522;2024-01-30T01:01:51;10.88;;;6.90;;
28357;SDS011;15605;48.114;11.522;2024-01-30T01:04:44;11.10;;;6.57;;
28357;SDS011;15605;48.114;11.522;2024-01-30T01:07:49;13.25;;;6.00;;
28357;SDS011;15605;48.114;11.522;2024-01-30T01:11:28;11.98;;;6.57;;
28357;SDS011;15605;48.114;11.522;2024-01-30T01:14:49;13.73;;;7.00;;
28357;SDS011;15605;48.114;11.522;2024-01-30T01:18:12;12.15;;;6.07;;
28357;SDS011;15605;48.114;11.522;2024-01-30T01:21:14;10.45;;;5.80;;
28357;SDS011;15605;48.114;11.522;2024-01-30T01:24:50;11.90;;;6.22;;
28357;SDS011;15605;48.114;11.522;2024-01-30T01:28:13;16.23;;;7.22;;
28357;SDS011;15605;48.114;11.522;2024-01-30T01:31:12;9.93;;;6.15;;
28357;SDS011;15605;48.114;11.522;2024-01-30T01:34:47;11.68;;;6.13;;
28357;SDS011;15605;48.114;11.522;2024-01-30T01:38:16;13.50;;;7.00;;
28357;SDS011;15605;48.114;11.522;2024-01-30T01:41:54;11.88;;;5.95;;
28357;SDS011;15605;48.114;11.522;2024-01-30T01:48:57;11.05;;;6.43;;
28357;SDS011;15605;48.114;11.522;2024-01-30T01:56:56;13.73;;;6.50;;
28357;SDS011;15605;48.114;11.522;2024-01-30T02:04:22;11.20;;;5.57;;
28357;SDS011;15605;48.114;11.522;2024-01-30T02:08:29;8.60;;;4.90;;
28357;SDS011;15605;48.114;11.522;2024-01-30T02:11:48;10.15;;;5.70;;
28357;SDS011;15605;48.114;11.522;2024-01-30T02:15:28;9.07;;;4.93;;
28357;SDS011;15605;48.114;11.522;2024-01-30T02:18:26;10.77;;;5.95;;
28357;SDS011;15605;48.114;11.522;2024-01-30T02:33:22;7.95;;;5.57;;
28357;SDS011;15605;48.114;11.522;2024-01-30T02:36:51;7.85;;;5.15;;
28357;SDS011;15605;48.114;11.522;2024-01-30T02:39:34;8.95;;;4.95;;
28357;SDS011;15605;48.114;11.522;2024-01-30T02:50:20;8.90;;;4.70;;
28357;SDS011;15605;48.114;11.522;2024-01-30T03:05:34;7.57;;;4.43;;
28357;SDS011;15605;48.114;11.522;2024-01-30T03:13:02;6.22;;;4.20;;
28357;SDS011;15605;48.114;11.522;2024-01-30T03:31:23;6.07;;;3.70;;
28357;SDS011;15605;48.114;11.522;2024-01-30T03:34:55;6.10;;;3.45;;
28357;SDS011;15605;48.114;11.522;2024-01-30T03:37:56;6.88;;;3.90;;
28357;SDS011;15605;48.114;11.522;2024-01-30T03:41:18;6.10;;;3.60;;
28357;SDS011;15605;48.114;11.522;2024-01-30T03:44:59;6.13;;;3.55;;
28357;SDS011;15605;48.114;11.522;2024-01-30T03:48:27;6.03;;;3.85;;
28357;SDS011;15605;48.114;11.522;2024-01-30T03:52:07;5.72;;;3.55;;
28357;SDS011;15605;48.114;11.522;2024-01-30T03:55:43;5.57;;;3.58;;
28357;SDS011;15605;48.114;11.522;2024-01-30T03:59:07;5.25;;;3.42;;
28357;SDS011;15605;48.114;11.522;2024-01-30T04:02:46;9.10;;;3.55;;
28357;SDS011;15605;48.114;11.522;2024-01-30T04:06:16;5.43;;;3.33;;
28357;SDS011;15605;48.114;11.522;2024-01-30T04:09:30;5.05;;;3.03;;
28357;SDS011;15605;48.114;11.522;2024-01-30T04:12:21;4.38;;;3.20;;
28357;SDS011;15605;48.114;11.522;2024-01-30T04:15:26;5.22;;;3.13;;
28357;SDS011;15605;48.114;11.522;2024-01-30T04:18:59;4.90;;;3.00;;
28357;SDS011;15605;48.114;11.522;2024-01-30T04:22:31;5.03;;;2.85;;
28357;SDS011;15605;48.114;11.522;2024-01-30T04:25:36;5.70;;;3.25;;
28357;SDS011;15605;48.114;11.522;2024-01-30T04:29:20;4.75;;;3.20;;
28357;SDS011;15605;48.114;11.522;2024-01-30T04:32:55;6.30;;;3.13;;
28357;SDS011;15605;48.114;11.522;2024-01-30T04:36:21;4.72;;;2.95;;
28357;SDS011;15605;48.114;11.522;2024-01-30T04:40:06;5.60;;;3.35;;
28357;SDS011;15605;48.114;11.522;2024-01-30T04:43:17;4.68;;;3.17;;
28357;SDS011;15605;48.114;11.522;2024-01-30T04:46:59;5.05;;;3.10;;
28357;SDS011;15605;48.114;11.522;2024-01-30T04:58:04;5.47;;;3.00;;
28357;SDS011;15605;48.114;11.522;2024-01-30T05:00:57;5.75;;;3.53;;
28357;SDS011;15605;48.114;11.522;2024-01-30T05:04:41;5.55;;;3.13;;
28357;SDS011;15605;48.114;11.522;2024-01-30T05:11:11;3.95;;;2.67;;
28357;SDS011;15605;48.114;11.522;2024-01-30T05:14:10;5.13;;;3.10;;
28357;SDS011;15605;48.114;11.522;2024-01-30T05:16:42;6.22;;;3.33;;
28357;SDS011;15605;48.114;11.522;2024-01-30T05:19:48;3.15;;;2.63;;
28357;SDS011;15605;48.114;11.522;2024-01-30T05:22:55;4.35;;;2.90;;
28357;SDS011;15605;48.114;11.522;2024-01-30T05:33:12;4.28;;;3.10;;
28357;SDS011;15605;48.114;11.522;2024-01-30T05:35:48;3.65;;;2.78;;
28357;SDS011;15605;48.114;11.522;2024-01-30T05:38:27;4.18;;;2.70;;
28357;SDS011;15605;48.114;11.522;2024-01-30T05:48:42;5.05;;;2.88;;
28357;SDS011;15605;48.114;11.522;2024-01-30T05:55:18;4.78;;;2.78;;
28357;SDS011;15605;48.114;11.522;2024-01-30T05:57:56;4.57;;;3.22;;
28357;SDS011;15605;48.114;11.522;2024-01-30T06:01:33;7.82;;;2.80;;
28357;SDS011;15605;48.114;11.522;2024-01-30T06:09:10;6.85;;;2.55;;
28357;SDS011;15605;48.114;11.522;2024-01-30T06:12:26;8.60;;;3.22;;
28357;SDS011;15605;48.114;11.522;2024-01-30T06:15:20;4.60;;;2.90;;
28357;SDS011;15605;48.114;11.522;2024-01-30T06:21:42;9.85;;;3.20;;
28357;SDS011;15605;48.114;11.522;2024-01-30T06:24:34;9.05;;;3.42;;
28357;SDS011;15605;48.114;11.522;2024-01-30T06:27:44;7.88;;;2.97;;
28357;SDS011;15605;48.114;11.522;2024-01-30T06:30:19;6.15;;;3.60;;
28357;SDS011;15605;48.114;11.522;2024-01-30T06:32:51;7.95;;;3.22;;
28357;SDS011;15605;48.114;11.522;2024-01-30T06:35:22;5.60;;;3.22;;
28357;SDS011;15605;48.114;11.522;2024-01-30T06:37:53;9.40;;;3.13;;
28357;SDS011;15605;48.114;11.522;2024-01-30T06:40:25;6.57;;;3.20;;
28357;SDS011;15605;48.114;11.522;2024-01-30T06:42:57;9.05;;;3.47;;
28357;SDS011;15605;48.114;11.522;2024-01-30T06:45:37;6.25;;;3.00;;
28357;SDS011;15605;48.114;11.522;2024-01-30T06:48:11;5.82;;;3.08;;
28357;SDS011;15605;48.114;11.522;2024-01-30T06:50:45;8.55;;;3.05;;
28357;SDS011;15605;48.114;11.522;2024-01-30T06:53:23;9.95;;;3.25;;
28357;SDS011;15605;48.114;11.522;2024-01-30T06:56:07;5.97;;;3.03;;
28357;SDS011;15605;48.114;11.522;2024-01-30T06:58:49;5.22;;;3.50;;
28357;SDS011;15605;48.114;11.522;2024-01-30T07:01:22;7.93;;;3.08;;
28357;SDS011;15605;48.114;11.522;2024-01-30T07:04:08;6.43;;;3.63;;
28357;SDS011;15605;48.114;11.522;2024-01-30T07:06:51;5.97;;;3.22;;
28357;SDS011;15605;48.114;11.522;2024-01-30T07:09:23;6.60;;;3.42;;
28357;SDS011;15605;48.114;11.522;2024-01-30T07:11:59;6.63;;;3.40;;
28357;SDS011;15605;48.114;11.522;2024-01-30T07:14:49;4.90;;;3.17;;
28357;SDS011;15605;48.114;11.522;2024-01-30T07:18:01;6.68;;;3.55;;
28357;SDS011;15605;48.114;11.522;2024-01-30T07:20:57;7.65;;;3.63;;
28357;SDS011;15605;48.114;11.522;2024-01-30T07:23:32;12.43;;;3.90;;
28357;SDS011;15605;48.114;11.522;2024-01-30T07:26:20;7.78;;;3.40;;
28357;SDS011;15605;48.114;11.522;2024-01-30T07:28:56;10.23;;;3.53;;
28357;SDS011;15605;48.114;11.522;2024-01-30T07:31:35;11.82;;;3.70;;
28357;SDS011;15605;48.114;11.522;2024-01-30T07:34:12;6.53;;;3.50;;
28357;SDS011;15605;48.114;11.522;2024-01-30T07:36:46;13.13;;;3.53;;
28357;SDS011;15605;48.114;11.522;2024-01-30T07:39:19;4.25;;;2.90;;
28357;SDS011;15605;48.114;11.522;2024-01-30T07:42:19;8.93;;;3.47;;
28357;SDS011;15605;48.114;11.522;2024-01-30T07:45:24;7.57;;;3.67;;
28357;SDS011;15605;48.114;11.522;2024-01-30T07:48:10;7.45;;;3.55;;
28357;SDS011;15605;48.114;11.522;2024-01-30T07:50:48;6.07;;;3.78;;
28357;SDS011;15605;48.114;11.522;2024-01-30T07:53:36;5.65;;;3.20;;
28357;SDS011;15605;48.114;11.522;2024-01-30T07:56:12;6.53;;;3.10;;
28357;SDS011;15605;48.114;11.522;2024-01-30T07:58:49;5.63;;;3.47;;
28357;SDS011;15605;48.114;11.522;2024-01-30T08:01:28;11.90;;;3.58;;
28357;SDS011;15605;48.114;11.522;2024-01-30T08:04:00;4.15;;;3.03;;
28357;SDS011;15605;48.114;11.522;2024-01-30T08:06:33;7.45;;;3.67;;
28357;SDS011;15605;48.114;11.522;2024-01-30T08:09:06;7.18;;;3.78;;
28357;SDS011;15605;48.114;11.522;2024-01-30T08:11:49;10.93;;;2.90;;
28357;SDS011;15605;48.114;11.522;2024-01-30T08:14:24;4.45;;;2.90;;
28357;SDS011;15605;48.114;11.522;2024-01-30T08:16:56;8.43;;;3.33;;
28357;SDS011;15605;48.114;11.522;2024-01-30T08:19:28;5.47;;;3.40;;
28357;SDS011;15605;48.114;11.522;2024-01-30T08:22:06;5.32;;;3.28;;
28357;SDS011;15605;48.114;11.522;2024-01-30T08:27:11;7.57;;;3.20;;
28357;SDS011;15605;48.114;11.522;2024-01-30T08:29:49;6.30;;;2.88;;
28357;SDS011;15605;48.114;11.522;2024-01-30T08:32:24;4.28;;;2.50;;
28357;SDS011;15605;48.114;11.522;2024-01-30T08:34:56;5.20;;;3.08;;
28357;SDS011;15605;48.114;11.522;2024-01-30T08:37:35;5.60;;;2.90;;
28357;SDS011;15605;48.114;11.522;2024-01-30T08:40:09;3.40;;;2.50;;
28357;SDS011;15605;48.114;11.522;2024-01-30T08:42:42;5.05;;;2.55;;
28357;SDS011;15605;48.114;11.522;2024-01-30T08:45:15;5.07;;;2.72;;
28357;SDS011;15605;48.114;11.522;2024-01-30T08:47:50;5.18;;;3.30;;
28357;SDS011;15605;48.114;11.522;2024-01-30T08:50:21;6.63;;;3.50;;
28357;SDS011;15605;48.114;11.522;2024-01-30T08:52:55;4.27;;;2.50;;
28357;SDS011;15605;48.114;11.522;2024-01-30T08:55:27;6.43;;;3.90;;
28357;SDS011;15605;48.114;11.522;2024-01-30T08:57:58;8.40;;;3.67;;
28357;SDS011;15605;48.114;11.522;2024-01-30T09:00:33;6.85;;;3.88;;
28357;SDS011;15605;48.114;11.522;2024-01-30T09:03:06;6.18;;;3.58;;
28357;SDS011;15605;48.114;11.522;2024-01-30T09:05:40;12.25;;;3.97;;
28357;SDS011;15605;48.114;11.522;2024-01-30T09:08:12;6.28;;;3.70;;
28357;SDS011;15605;48.114;11.522;2024-01-30T09:10:45;6.15;;;3.67;;
28357;SDS011;15605;48.114;11.522;2024-01-30T09:13:19;7.35;;;3.83;;
28357;SDS011;15605;48.114;11.522;2024-01-30T09:15:49;6.78;;;3.78;;
28357;SDS011;15605;48.114;11.522;2024-01-30T09:18:23;6.00;;;3.63;;
28357;SDS011;15605;48.114;11.522;2024-01-30T09:20:56;5.20;;;3.53;;
28357;SDS011;15605;48.114;11.522;2024-01-30T09:23:32;10.25;;;4.00;;
28357;SDS011;15605;48.114;11.522;2024-01-30T09:26:08;6.60;;;3.70;;
28357;SDS011;15605;48.114;11.522;2024-01-30T09:28:41;5.65;;;3.35;;
28357;SDS011;15605;48.114;11.522;2024-01-30T09:31:14;8.17;;;3.10;;
28357;SDS011;15605;48.114;11.522;2024-01-30T09:33:47;4.30;;;3.00;;
28357;SDS011;15605;48.114;11.522;2024-01-30T09:36:22;7.13;;;3.58;;
28357;SDS011;15605;48.114;11.522;2024-01-30T09:38:53;6.45;;;3.30;;
28357;SDS011;15605;48.114;11.522;2024-01-30T09:41:23;6.65;;;3.30;;
28357;SDS011;15605;48.114;11.522;2024-01-30T09:43:57;5.50;;;3.08;;
28357;SDS011;15605;48.114;11.522;2024-01-30T09:46:27;6.63;;;2.83;;
28357;SDS011;15605;48.114;11.522;2024-01-30T09:49:00;4.27;;;3.10;;
28357;SDS011;15605;48.114;11.522;2024-01-30T09:51:32;5.68;;;3.13;;
28357;SDS011;15605;48.114;11.522;2024-01-30T09:54:04;4.20;;;2.92;;
28357;SDS011;15605;48.114;11.522;2024-01-30T09:56:39;4.10;;;2.83;;
28357;SDS011;15605;48.114;11.522;2024-01-30T09:59:09;7.20;;;3.10;;
28357;SDS011;15605;48.114;11.522;2024-01-30T10:01:41;7.32;;;3.83;;
28357;SDS011;15605;48.114;11.522;2024-01-30T10:04:15;5.25;;;2.80;;
28357;SDS011;15605;48.114;11.522;2024-01-30T10:06:47;5.57;;;2.90;;
28357;SDS011;15605;48.114;11.522;2024-01-30T10:09:21;5.38;;;3.00;;
28357;SDS011;15605;48.114;11.522;2024-01-30T10:11:57;6.47;;;2.85;;
28357;SDS011;15605;48.114;11.522;2024-01-30T10:14:29;4.28;;;2.60;;
28357;SDS011;15605;48.114;11.522;2024-01-30T10:17:01;6.88;;;2.83;;
28357;SDS011;15605;48.114;11.522;2024-01-30T10:19:34;5.05;;;2.85;;
28357;SDS011;15605;48.114;11.522;2024-01-30T10:22:06;6.97;;;2.88;;
28357;SDS011;15605;48.114;11.522;2024-01-30T10:24:38;6.38;;;2.63;;
28357;SDS011;15605;48.114;11.522;2024-01-30T10:27:11;4.95;;;2.58;;
28357;SDS011;15605;48.114;11.522;2024-01-30T10:29:42;4.93;;;2.70;;
28357;SDS011;15605;48.114;11.522;2024-01-30T10:32:16;4.35;;;2.78;;
28357;SDS011;15605;48.114;11.522;2024-01-30T10:34:49;4.68;;;2.90;;
28357;SDS011;15605;48.114;11.522;2024-01-30T10:37:20;4.85;;;2.80;;
28357;SDS011;15605;48.114;11.522;2024-01-30T10:42:27;5.88;;;2.90;;
28357;SDS011;15605;48.114;11.522;2024-01-30T10:45:07;6.50;;;3.05;;
28357;SDS011;15605;48.114;11.522;2024-01-30T10:47:49;3.53;;;2.70;;
28357;SDS011;15605;48.114;11.522;2024-01-30T10:50:31;4.78;;;2.65;;
28357;SDS011;15605;48.114;11.522;2024-01-30T10:53:04;3.92;;;2.63;;
28357;SDS011;15605;48.114;11.522;2024-01-30T10:55:37;4.95;;;2.90;;
28357;SDS011;15605;48.114;11.522;2024-01-30T10:58:10;3.00;;;1.80;;
28357;SDS011;15605;48.114;11.522;2024-01-30T11:00:43;4.57;;;2.70;;
28357;SDS011;15605;48.114;11.522;2024-01-30T11:03:16;7.30;;;2.17;;
28357;SDS011;15605;48.114;11.522;2024-01-30T11:05:50;3.58;;;2.40;;
28357;SDS011;15605;48.114;11.522;2024-01-30T11:08:25;4.50;;;2.72;;
28357;SDS011;15605;48.114;11.522;2024-01-30T11:10:59;4.95;;;2.88;;
28357;SDS011;15605;48.114;11.522;2024-01-30T11:13:31;4.22;;;2.50;;
28357;SDS011;15605;48.114;11.522;2024-01-30T11:16:05;4.22;;;2.42;;
28357;SDS011;15605;48.114;11.522;2024-01-30T11:18:42;5.20;;;2.67;;
28357;SDS011;15605;48.114;11.522;2024-01-30T11:21:12;4.40;;;2.50;;
28357;SDS011;15605;48.114;11.522;2024-01-30T11:23:47;5.18;;;2.40;;
28357;SDS011;15605;48.114;11.522;2024-01-30T11:26:30;3.10;;;2.03;;
28357;SDS011;15605;48.114;11.522;2024-01-30T11:29:07;4.03;;;2.45;;
28357;SDS011;15605;48.114;11.522;2024-01-30T11:31:38;5.53;;;2.42;;
28357;SDS011;15605;48.114;11.522;2024-01-30T11:34:08;3.75;;;2.25;;
28357;SDS011;15605;48.114;11.522;2024-01-30T11:36:48;4.28;;;2.30;;
28357;SDS011;15605;48.114;11.522;2024-01-30T11:39:34;3.55;;;2.50;;
28357;SDS011;15605;48.114;11.522;2024-01-30T11:42:07;6.17;;;2.77;;
28357;SDS011;15605;48.114;11.522;2024-01-30T11:44:39;5.85;;;2.58;;
28357;SDS011;15605;48.114;11.522;2024-01-30T11:47:09;4.53;;;2.00;;
28357;SDS011;15605;48.114;11.522;2024-01-30T11:49:41;3.92;;;2.40;;
28357;SDS011;15605;48.114;11.522;2024-01-30T11:52:14;2.88;;;2.30;;
28357;SDS011;15605;48.114;11.522;2024-01-30T11:54:44;3.50;;;2.38;;
28357;SDS011;15605;48.114;11.522;2024-01-30T11:57:18;3.20;;;1.85;;
28357;SDS011;15605;48.114;11.522;2024-01-30T11:59:48;10.32;;;2.40;;
28357;SDS011;15605;48.114;11.522;2024-01-30T12:02:21;4.47;;;2.22;;
28357;SDS011;15605;48.114;11.522;2024-01-30T12:04:51;5.00;;;2.30;;
28357;SDS011;15605;48.114;11.522;2024-01-30T12:07:22;4.18;;;2.45;;
28357;SDS011;15605;48.114;11.522;2024-01-30T12:09:55;3.70;;;2.00;;
28357;SDS011;15605;48.114;11.522;2024-01-30T12:12:27;3.85;;;2.15;;
28357;SDS011;15605;48.114;11.522;2024-01-30T12:15:00;3.60;;;2.00;;
28357;SDS011;15605;48.114;11.522;2024-01-30T12:17:32;2.92;;;2.10;;
28357;SDS011;15605;48.114;11.522;2024-01-30T12:20:12;5.10;;;2.45;;
28357;SDS011;15605;48.114;11.522;2024-01-30T12:22:48;3.42;;;2.17;;
28357;SDS011;15605;48.114;11.522;2024-01-30T12:25:22;6.30;;;2.25;;
28357;SDS011;15605;48.114;11.522;2024-01-30T12:27:53;3.58;;;2.20;;
28357;SDS011;15605;48.114;11.522;2024-01-30T12:30:24;3.30;;;1.90;;
28357;SDS011;15605;48.114;11.522;2024-01-30T12:32:55;5.50;;;2.13;;
28357;SDS011;15605;48.114;11.522;2024-01-30T12:35:34;4.40;;;1.98;;
28357;SDS011;15605;48.114;11.522;2024-01-30T12:38:06;3.05;;;2.05;;
28357;SDS011;15605;48.114;11.522;2024-01-30T12:40:36;3.55;;;2.00;;
28357;SDS011;15605;48.114;11.522;2024-01-30T12:43:08;4.05;;;2.50;;
28357;SDS011;15605;48.114;11.522;2024-01-30T12:45:41;5.68;;;2.17;;
28357;SDS011;15605;48.114;11.522;2024-01-30T12:48:15;3.00;;;1.80;;
28357;SDS011;15605;48.114;11.522;2024-01-30T12:50:47;4.32;;;2.33;;
28357;SDS011;15605;48.114;11.522;2024-01-30T12:53:19;3.55;;;2.08;;
28357;SDS011;15605;48.114;11.522;2024-01-30T12:55:52;3.88;;;2.28;;
28357;SDS011;15605;48.114;11.522;2024-01-30T12:58:27;3.78;;;2.20;;
28357;SDS011;15605;48.114;11.522;2024-01-30T13:01:00;7.07;;;2.22;;
28357;SDS011;15605;48.114;11.522;2024-01-30T13:03:35;4.28;;;2.33;;
28357;SDS011;15605;48.114;11.522;2024-01-30T13:06:10;3.58;;;2.30;;
28357;SDS011;15605;48.114;11.522;2024-01-30T13:08:44;3.22;;;2.10;;
28357;SDS011;15605;48.114;11.522;2024-01-30T13:11:19;4.25;;;2.13;;
28357;SDS011;15605;48.114;11.522;2024-01-30T13:13:54;3.83;;;2.15;;
28357;SDS011;15605;48.114;11.522;2024-01-30T13:16:25;6.38;;;2.50;;
28357;SDS011;15605;48.114;11.522;2024-01-30T13:18:59;3.23;;;1.87;;
28357;SDS011;15605;48.114;11.522;2024-01-30T13:21:31;5.13;;;2.50;;
28357;SDS011;15605;48.114;11.522;2024-01-30T13:24:00;6.10;;;2.47;;
28357;SDS011;15605;48.114;11.522;2024-01-30T13:26:34;5.40;;;2.45;;
28357;SDS011;15605;48.114;11.522;2024-01-30T13:29:08;3.30;;;2.13;;
28357;SDS011;15605;48.114;11.522;2024-01-30T13:31:39;3.63;;;2.10;;
28357;SDS011;15605;48.114;11.522;2024-01-30T13:34:12;4.25;;;1.92;;
28357;SDS011;15605;48.114;11.522;2024-01-30T13:36:43;4.70;;;2.65;;
28357;SDS011;15605;48.114;11.522;2024-01-30T13:39:19;5.15;;;2.13;;
28357;SDS011;15605;48.114;11.522;2024-01-30T13:41:54;2.78;;;2.00;;
28357;SDS011;15605;48.114;11.522;2024-01-30T13:44:27;4.70;;;2.45;;
28357;SDS011;15605;48.114;11.522;2024-01-30T13:47:03;3.17;;;2.10;;
28357;SDS011;15605;48.114;11.522;2024-01-30T13:49:35;3.83;;;2.30;;
28357;SDS011;15605;48.114;11.522;2024-01-30T13:52:06;2.75;;;1.63;;
28357;SDS011;15605;48.114;11.522;2024-01-30T13:57:35;2.88;;;1.83;;
28357;SDS011;15605;48.114;11.522;2024-01-30T14:00:07;2.83;;;2.00;;
28357;SDS011;15605;48.114;11.522;2024-01-30T14:02:42;4.07;;;1.95;;
28357;SDS011;15605;48.114;11.522;2024-01-30T14:05:12;3.63;;;1.92;;
28357;SDS011;15605;48.114;11.522;2024-01-30T14:07:47;3.10;;;1.73;;
28357;SDS011;15605;48.114;11.522;2024-01-30T14:10:22;5.32;;;2.00;;
28357;SDS011;15605;48.114;11.522;2024-01-30T14:12:55;3.53;;;2.25;;
28357;SDS011;15605;48.114;11.522;2024-01-30T14:15:27;3.53;;;2.03;;
28357;SDS011;15605;48.114;11.522;2024-01-30T14:17:59;2.65;;;1.92;;
28357;SDS011;15605;48.114;11.522;2024-01-30T14:20:34;3.53;;;2.77;;
28357;SDS011;15605;48.114;11.522;2024-01-30T14:23:08;6.00;;;1.95;;
28357;SDS011;15605;48.114;11.522;2024-01-30T14:25:41;4.13;;;2.20;;
28357;SDS011;15605;48.114;11.522;2024-01-30T14:28:12;3.03;;;2.10;;
28357;SDS011;15605;48.114;11.522;2024-01-30T14:30:44;4.93;;;1.85;;
28357;SDS011;15605;48.114;11.522;2024-01-30T14:33:15;2.72;;;1.90;;
28357;SDS011;15605;48.114;11.522;2024-01-30T14:35:47;4.20;;;2.00;;
28357;SDS011;15605;48.114;11.522;2024-01-30T14:38:18;2.97;;;1.60;;
28357;SDS011;15605;48.114;11.522;2024-01-30T14:40:50;3.75;;;2.25;;
28357;SDS011;15605;48.114;11.522;2024-01-30T14:43:21;2.97;;;1.65;;
28357;SDS011;15605;48.114;11.522;2024-01-30T14:45:57;2.90;;;1.90;;
28357;SDS011;15605;48.114;11.522;2024-01-30T14:48:52;2.30;;;1.55;;
28357;SDS011;15605;48.114;11.522;2024-01-30T14:51:41;4.25;;;1.90;;
28357;SDS011;15605;48.114;11.522;2024-01-30T14:54:19;4.85;;;1.90;;
28357;SDS011;15605;48.114;11.522;2024-01-30T14:57:17;6.38;;;2.03;;
28357;SDS011;15605;48.114;11.522;2024-01-30T14:59:52;4.65;;;2.20;;
28357;SDS011;15605;48.114;11.522;2024-01-30T15:02:27;4.15;;;1.98;;
28357;SDS011;15605;48.114;11.522;2024-01-30T15:05:11;3.63;;;1.92;;
28357;SDS011;15605;48.114;11.522;2024-01-30T15:07:48;4.18;;;2.10;;
28357;SDS011;15605;48.114;11.522;2024-01-30T15:10:21;4.63;;;1.95;;
28357;SDS011;15605;48.114;11.522;2024-01-30T15:12:57;6.75;;;2.60;;
28357;SDS011;15605;48.114;11.522;2024-01-30T15:15:30;9.07;;;2.22;;
28357;SDS011;15605;48.114;11.522;2024-01-30T15:18:04;9.23;;;2.22;;
28357;SDS011;15605;48.114;11.522;2024-01-30T15:20:39;4.55;;;1.98;;
28357;SDS011;15605;48.114;11.522;2024-01-30T15:23:11;4.13;;;1.90;;
28357;SDS011;15605;48.114;11.522;2024-01-30T15:25:49;6.60;;;2.22;;
28357;SDS011;15605;48.114;11.522;2024-01-30T15:28:34;6.82;;;1.90;;
28357;SDS011;15605;48.114;11.522;2024-01-30T15:31:12;10.90;;;2.47;;
28357;SDS011;15605;48.114;11.522;2024-01-30T15:33:46;9.82;;;2.88;;
28357;SDS011;15605;48.114;11.522;2024-01-30T15:36:21;11.23;;;2.25;;
28357;SDS011;15605;48.114;11.522;2024-01-30T15:38:56;5.95;;;2.38;;
28357;SDS011;15605;48.114;11.522;2024-01-30T15:41:42;4.50;;;2.70;;
28357;SDS011;15605;48.114;11.522;2024-01-30T15:44:14;7.10;;;2.72;;
28357;SDS011;15605;48.114;11.522;2024-01-30T15:46:45;8.02;;;2.35;;
28357;SDS011;15605;48.114;11.522;2024-01-30T15:49:18;5.57;;;2.90;;
28357;SDS011;15605;48.114;11.522;2024-01-30T15:51:54;5.80;;;2.63;;
28357;SDS011;15605;48.114;11.522;2024-01-30T15:54:25;5.00;;;2.80;;
28357;SDS011;15605;48.114;11.522;2024-01-30T15:56:58;8.52;;;2.60;;
28357;SDS011;15605;48.114;11.522;2024-01-30T15:59:29;10.85;;;2.63;;
28357;SDS011;15605;48.114;11.522;2024-01-30T16:01:59;6.80;;;2.53;;
28357;SDS011;15605;48.114;11.522;2024-01-30T16:04:29;5.07;;;2.90;;
28357;SDS011;15605;48.114;11.522;2024-01-30T16:07:01;9.77;;;2.72;;
28357;SDS011;15605;48.114;11.522;2024-01-30T16:09:31;7.80;;;2.40;;
28357;SDS011;15605;48.114;11.522;2024-01-30T16:12:02;7.75;;;2.60;;
28357;SDS011;15605;48.114;11.522;2024-01-30T16:14:34;5.22;;;2.58;;
28357;SDS011;15605;48.114;11.522;2024-01-30T16:17:05;10.45;;;3.20;;
28357;SDS011;15605;48.114;11.522;2024-01-30T16:19:36;8.98;;;2.80;;
28357;SDS011;15605;48.114;11.522;2024-01-30T16:22:06;7.93;;;2.80;;
28357;SDS011;15605;48.114;11.522;2024-01-30T16:24:38;5.93;;;2.47;;
28357;SDS011;15605;48.114;11.522;2024-01-30T16:27:09;7.53;;;2.60;;
28357;SDS011;15605;48.114;11.522;2024-01-30T16:29:42;10.65;;;3.03;;
28357;SDS011;15605;48.114;11.522;2024-01-30T16:32:13;8.63;;;2.92;;
28357;SDS011;15605;48.114;11.522;2024-01-30T16:34:45;9.98;;;2.90;;
28357;SDS011;15605;48.114;11.522;2024-01-30T16:37:17;7.07;;;2.93;;
28357;SDS011;15605;48.114;11.522;2024-01-30T16:39:50;7.95;;;2.53;;
28357;SDS011;15605;48.114;11.522;2024-01-30T16:42:23;6.35;;;2.83;;
28357;SDS011;15605;48.114;11.522;2024-01-30T16:44:54;4.90;;;2.80;;
28357;SDS011;15605;48.114;11.522;2024-01-30T16:47:26;9.57;;;2.83;;
28357;SDS011;15605;48.114;11.522;2024-01-30T16:49:57;11.70;;;3.28;;
28357;SDS011;15605;48.114;11.522;2024-01-30T16:52:29;11.32;;;2.85;;
28357;SDS011;15605;48.114;11.522;2024-01-30T16:54:59;7.55;;;2.88;;
28357;SDS011;15605;48.114;11.522;2024-01-30T16:57:30;11.70;;;3.08;;
28357;SDS011;15605;48.114;11.522;2024-01-30T17:00:01;10.55;;;3.38;;
28357;SDS011;15605;48.114;11.522;2024-01-30T17:02:33;11.98;;;3.38;;
28357;SDS011;15605;48.114;11.522;2024-01-30T17:05:03;7.00;;;3.28;;
28357;SDS011;15605;48.114;11.522;2024-01-30T17:07:34;9.05;;;3.70;;
28357;SDS011;15605;48.114;11.522;2024-01-30T17:10:05;15.77;;;3.75;;
28357;SDS011;15605;48.114;11.522;2024-01-30T17:12:37;8.45;;;3.92;;
28357;SDS011;15605;48.114;11.522;2024-01-30T17:15:07;14.73;;;4.32;;
28357;SDS011;15605;48.114;11.522;2024-01-30T17:17:42;11.30;;;4.50;;
28357;SDS011;15605;48.114;11.522;2024-01-30T17:20:14;16.20;;;5.47;;
28357;SDS011;15605;48.114;11.522;2024-01-30T17:22:44;13.18;;;5.03;;
28357;SDS011;15605;48.114;11.522;2024-01-30T17:25:17;14.15;;;5.47;;
28357;SDS011;15605;48.114;11.522;2024-01-30T17:27:50;14.55;;;5.38;;
28357;SDS011;15605;48.114;11.522;2024-01-30T17:30:24;14.32;;;5.40;;
28357;SDS011;15605;48.114;11.522;2024-01-30T17:32:56;10.10;;;6.00;;
28357;SDS011;15605;48.114;11.522;2024-01-30T17:35:26;10.15;;;5.55;;
28357;SDS011;15605;48.114;11.522;2024-01-30T17:38:03;13.20;;;5.72;;
28357;SDS011;15605;48.114;11.522;2024-01-30T17:40:35;17.55;;;7.20;;
28357;SDS011;15605;48.114;11.522;2024-01-30T17:43:07;17.42;;;6.40;;
28357;SDS011;15605;48.114;11.522;2024-01-30T17:45:38;19.45;;;7.68;;
28357;SDS011;15605;48.114;11.522;2024-01-30T17:48:10;14.13;;;6.93;;
28357;SDS011;15605;48.114;11.522;2024-01-30T17:50:42;13.98;;;6.95;;
28357;SDS011;15605;48.114;11.522;2024-01-30T17:53:15;20.63;;;7.13;;
28357;SDS011;15605;48.114;11.522;2024-01-30T17:55:53;17.52;;;6.97;;